Time;durP1;ratioP1;P1;durP2;ratioP2;P2;SDS_P1;SDS_P2;PMS_P1;PMS_P2;Temp;Humidity;BMP_temperature;BMP_pressure;BME280_temperature;BME280_humidity;BME280_pressure;Samples;Min_cycle;Max_cycle;Signal;HPM_P1;HPM_P2
2023/07/19 00:00:13;;;;;;;4.90;2.50;;;;;;;;;;5035134;28;20108;-74
2023/07/19 00:02:38;;;;;;;2.97;1.95;;;;;;;;;;5035095;28;20109;-74
2023/07/19 00:05:04;;;;;;;4.15;2.03;;;;;;;;;;5034873;28;20112;-74
2023/07/19 00:07:29;;;;;;;7.22;2.83;;;;;;;;;;5034126;28;20041;-75
2023/07/19 00:09:54;;;;;;;2.92;2.25;;;;;;;;;;5035058;28;20018;-74
2023/07/19 00:12:20;;;;;;;3.22;2.40;;;;;;;;;;5033363;28;20105;-74
2023/07/19 00:14:45;;;;;;;4.97;2.50;;;;;;;;;;5033465;28;20018;-74
2023/07/19 00:17:10;;;;;;;3.22;2.20;;;;;;;;;;5034856;28;20494;-74
2023/07/19 00:19:36;;;;;;;4.30;2.72;;;;;;;;;;5034479;28;20034;-74
2023/07/19 00:22:01;;;;;;;2.50;2.15;;;;;;;;;;5033864;28;20109;-74
2023/07/19 00:24:26;;;;;;;5.30;2.47;;;;;;;;;;5033332;28;20040;-74
2023/07/19 00:26:51;;;;;;;7.07;3.20;;;;;;;;;;5033077;28;20025;-73
2023/07/19 00:29:17;;;;;;;4.53;2.58;;;;;;;;;;5034304;28;20108;-74
2023/07/19 00:31:42;;;;;;;2.72;2.40;;;;;;;;;;5032724;28;20026;-75
2023/07/19 00:34:08;;;;;;;6.15;2.47;;;;;;;;;;5041967;28;20029;-75
2023/07/19 00:36:33;;;;;;;2.30;2.03;;;;;;;;;;5036817;28;20072;-75
2023/07/19 00:38:58;;;;;;;4.07;2.80;;;;;;;;;;5033159;28;20029;-74
2023/07/19 00:41:24;;;;;;;4.97;2.67;;;;;;;;;;5048578;28;20029;-75
2023/07/19 00:43:49;;;;;;;2.55;2.25;;;;;;;;;;5052148;28;20032;-74
2023/07/19 00:46:14;;;;;;;3.80;2.50;;;;;;;;;;5053648;28;20498;-75
2023/07/19 00:48:41;;;;;;;4.45;2.45;;;;;;;;;;5053854;28;20029;-75
2023/07/19 00:51:06;;;;;;;5.55;2.20;;;;;;;;;;5053702;28;20596;-74
2023/07/19 00:53:32;;;;;;;3.55;2.10;;;;;;;;;;5054361;28;20112;-73
2023/07/19 00:55:57;;;;;;;2.28;1.90;;;;;;;;;;5053075;28;20020;-75
2023/07/19 00:58:23;;;;;;;4.53;2.55;;;;;;;;;;5035864;28;20025;-74
2023/07/19 01:00:50;;;;;;;2.78;2.38;;;;;;;;;;5053604;28;20079;-74
2023/07/19 01:03:16;;;;;;;3.45;2.53;;;;;;;;;;5051379;28;20027;-74
2023/07/19 01:05:41;;;;;;;3.60;2.20;;;;;;;;;;5052326;28;20025;-74
2023/07/19 01:08:06;;;;;;;5.50;2.55;;;;;;;;;;5051975;28;20029;-75
2023/07/19 01:10:32;;;;;;;5.97;2.63;;;;;;;;;;5052084;28;20024;-74
2023/07/19 01:13:04;;;;;;;3.10;2.60;;;;;;;;;;5052486;28;20059;-75
2023/07/19 01:15:29;;;;;;;4.32;2.55;;;;;;;;;;5051942;28;20025;-75
2023/07/19 01:17:54;;;;;;;3.45;2.80;;;;;;;;;;5052917;28;20025;-74
2023/07/19 01:20:20;;;;;;;4.20;2.33;;;;;;;;;;5053154;28;20048;-75
2023/07/19 01:22:46;;;;;;;4.97;2.90;;;;;;;;;;5051914;28;20079;-74
2023/07/19 01:25:11;;;;;;;4.28;2.42;;;;;;;;;;5051854;28;20512;-74
2023/07/19 01:27:36;;;;;;;3.20;2.33;;;;;;;;;;5051981;28;20029;-74
2023/07/19 01:30:02;;;;;;;5.20;2.63;;;;;;;;;;5052484;28;20092;-74
2023/07/19 01:32:27;;;;;;;3.92;2.58;;;;;;;;;;5053117;28;20068;-74
2023/07/19 01:34:52;;;;;;;3.53;2.65;;;;;;;;;;5049114;28;20052;-75
2023/07/19 01:37:18;;;;;;;3.50;2.70;;;;;;;;;;5014936;28;20026;-74
2023/07/19 01:39:43;;;;;;;5.35;2.90;;;;;;;;;;5011207;28;20084;-75
2023/07/19 01:42:09;;;;;;;5.22;2.78;;;;;;;;;;5027724;28;20021;-74
2023/07/19 01:44:34;;;;;;;3.83;2.20;;;;;;;;;;5027944;28;20033;-75
2023/07/19 01:46:59;;;;;;;5.10;2.55;;;;;;;;;;5013229;28;20066;-75
2023/07/19 01:49:25;;;;;;;3.78;2.72;;;;;;;;;;5014987;28;20171;-75
2023/07/19 01:51:50;;;;;;;3.85;2.40;;;;;;;;;;5026591;28;20152;-74
2023/07/19 01:54:15;;;;;;;5.97;3.10;;;;;;;;;;5013016;28;20026;-75
2023/07/19 01:56:40;;;;;;;4.80;3.10;;;;;;;;;;5022449;28;20482;-75
2023/07/19 01:59:06;;;;;;;5.50;3.00;;;;;;;;;;5032584;28;20026;-75
2023/07/19 02:01:31;;;;;;;5.13;2.90;;;;;;;;;;5030713;28;20053;-74
2023/07/19 02:03:56;;;;;;;4.10;2.92;;;;;;;;;;5013489;28;20029;-74
2023/07/19 02:06:22;;;;;;;3.95;2.65;;;;;;;;;;5011645;28;20014;-75
2023/07/19 02:08:47;;;;;;;5.60;2.63;;;;;;;;;;5017815;28;20516;-74
2023/07/19 02:11:12;;;;;;;8.73;3.10;;;;;;;;;;5032095;28;20041;-74
2023/07/19 02:13:38;;;;;;;4.88;3.17;;;;;;;;;;5034333;28;20056;-74
2023/07/19 02:16:03;;;;;;;5.80;3.10;;;;;;;;;;5052039;28;20028;-74
2023/07/19 02:18:28;;;;;;;3.95;3.10;;;;;;;;;;5052381;28;20021;-75
2023/07/19 02:20:55;;;;;;;3.50;2.42;;;;;;;;;;5052506;28;20058;-74
2023/07/19 02:23:21;;;;;;;3.42;2.50;;;;;;;;;;5050561;28;20025;-74
2023/07/19 02:25:50;;;;;;;3.80;2.38;;;;;;;;;;5051323;28;20082;-75
2023/07/19 02:28:16;;;;;;;3.08;2.25;;;;;;;;;;5050953;28;20033;-74
2023/07/19 02:30:42;;;;;;;9.43;2.97;;;;;;;;;;5038438;28;20034;-74
2023/07/19 02:33:12;;;;;;;3.90;2.80;;;;;;;;;;5012110;28;20433;-74
2023/07/19 02:35:37;;;;;;;4.38;3.25;;;;;;;;;;5015739;28;20014;-74
2023/07/19 02:38:02;;;;;;;3.42;2.70;;;;;;;;;;5034736;28;20069;-74
2023/07/19 02:40:28;;;;;;;2.95;2.10;;;;;;;;;;5035942;28;20029;-75
2023/07/19 02:42:53;;;;;;;4.57;3.10;;;;;;;;;;5017573;28;20391;-75
2023/07/19 02:45:18;;;;;;;4.60;2.60;;;;;;;;;;5016387;28;20089;-74
2023/07/19 02:47:44;;;;;;;4.63;2.38;;;;;;;;;;5017511;28;20029;-74
2023/07/19 02:50:09;;;;;;;3.28;2.28;;;;;;;;;;4998749;28;20029;-74
2023/07/19 02:52:34;;;;;;;3.67;2.47;;;;;;;;;;5021222;28;20022;-75
2023/07/19 02:55:00;;;;;;;4.25;2.55;;;;;;;;;;5034799;28;20033;-75
2023/07/19 02:57:25;;;;;;;4.40;2.60;;;;;;;;;;5032040;28;20025;-74
2023/07/19 02:59:50;;;;;;;3.90;2.17;;;;;;;;;;5032288;28;20478;-74
2023/07/19 03:02:16;;;;;;;2.90;2.03;;;;;;;;;;5048080;28;20031;-74
2023/07/19 03:04:41;;;;;;;3.85;2.30;;;;;;;;;;5054612;28;20033;-74
2023/07/19 03:07:07;;;;;;;2.85;2.20;;;;;;;;;;5054452;28;20021;-74
2023/07/19 03:09:32;;;;;;;3.70;2.40;;;;;;;;;;5040123;28;20067;-74
2023/07/19 03:11:58;;;;;;;4.20;3.10;;;;;;;;;;5034356;28;20137;-74
2023/07/19 03:14:23;;;;;;;3.63;2.30;;;;;;;;;;5015098;28;20034;-75
2023/07/19 03:16:48;;;;;;;3.95;2.50;;;;;;;;;;5015960;28;20108;-74
2023/07/19 03:19:14;;;;;;;4.15;3.42;;;;;;;;;;5015621;28;20026;-75
2023/07/19 03:21:39;;;;;;;6.35;3.33;;;;;;;;;;5034628;28;20044;-74
2023/07/19 03:24:04;;;;;;;3.63;2.58;;;;;;;;;;5034603;28;20029;-74
2023/07/19 03:26:30;;;;;;;9.02;3.63;;;;;;;;;;5031821;28;20026;-74
2023/07/19 03:28:55;;;;;;;4.05;3.05;;;;;;;;;;5034491;28;20025;-74
2023/07/19 03:31:21;;;;;;;3.55;2.88;;;;;;;;;;5022656;28;20061;-75
2023/07/19 03:33:46;;;;;;;5.15;3.30;;;;;;;;;;5014736;28;20025;-74
2023/07/19 03:36:12;;;;;;;3.97;3.33;;;;;;;;;;5022825;28;20447;-74
2023/07/19 03:38:37;;;;;;;5.28;3.65;;;;;;;;;;5033955;28;20029;-75
2023/07/19 03:41:09;;;;;;;3.63;3.00;;;;;;;;;;5034795;28;20124;-74
2023/07/19 03:43:35;;;;;;;3.35;2.67;;;;;;;;;;5033632;28;20092;-74
2023/07/19 03:46:01;;;;;;;3.80;3.05;;;;;;;;;;5032539;28;20017;-74
2023/07/19 03:48:26;;;;;;;5.38;2.88;;;;;;;;;;5054538;28;20066;-74
2023/07/19 03:50:58;;;;;;;4.38;3.45;;;;;;;;;;5053541;28;20029;-74
2023/07/19 03:53:23;;;;;;;4.97;3.30;;;;;;;;;;5054454;28;20511;-74
2023/07/19 03:55:55;;;;;;;4.05;3.15;;;;;;;;;;5054528;28;20104;-74
2023/07/19 03:58:24;;;;;;;5.60;3.33;;;;;;;;;;5053742;28;20096;-75
2023/07/19 04:00:52;;;;;;;4.18;3.28;;;;;;;;;;5054597;28;20089;-74
2023/07/19 04:03:17;;;;;;;5.35;3.70;;;;;;;;;;5054116;28;20083;-74
2023/07/19 04:05:42;;;;;;;5.05;3.58;;;;;;;;;;5054404;28;20063;-74
2023/07/19 04:08:08;;;;;;;5.38;3.30;;;;;;;;;;5053332;28;20029;-75
2023/07/19 04:10:33;;;;;;;11.13;4.05;;;;;;;;;;5054273;28;20032;-74
2023/07/19 04:12:58;;;;;;;3.42;2.92;;;;;;;;;;5054248;28;20056;-74
2023/07/19 04:15:23;;;;;;;3.63;3.03;;;;;;;;;;5053843;28;20367;-74
2023/07/19 04:17:49;;;;;;;5.55;3.55;;;;;;;;;;5053275;28;20407;-75
2023/07/19 04:20:14;;;;;;;6.03;3.05;;;;;;;;;;5054281;28;20032;-74
2023/07/19 04:22:39;;;;;;;4.22;3.30;;;;;;;;;;5053873;28;20063;-75
2023/07/19 04:25:05;;;;;;;3.88;3.20;;;;;;;;;;5054243;28;20024;-74
2023/07/19 04:27:31;;;;;;;4.78;3.33;;;;;;;;;;5052607;28;20029;-74
2023/07/19 04:29:57;;;;;;;6.93;3.78;;;;;;;;;;5053125;28;20032;-73
2023/07/19 04:32:22;;;;;;;5.88;3.65;;;;;;;;;;5015739;28;20030;-75
2023/07/19 04:34:47;;;;;;;5.43;3.63;;;;;;;;;;5014923;28;20034;-74
2023/07/19 04:37:12;;;;;;;6.20;3.88;;;;;;;;;;5029531;28;20076;-75
2023/07/19 04:39:38;;;;;;;5.13;3.63;;;;;;;;;;5029828;28;20459;-75
2023/07/19 04:42:03;;;;;;;5.40;3.75;;;;;;;;;;5033974;28;20036;-75
2023/07/19 04:44:29;;;;;;;5.10;3.35;;;;;;;;;;5050823;28;20104;-75
2023/07/19 04:46:54;;;;;;;6.10;4.05;;;;;;;;;;5052558;28;20017;-74
2023/07/19 04:49:19;;;;;;;6.93;3.80;;;;;;;;;;5052910;28;20055;-74
2023/07/19 04:51:45;;;;;;;5.18;4.03;;;;;;;;;;5053325;28;20107;-75
2023/07/19 04:54:10;;;;;;;5.47;3.85;;;;;;;;;;5053729;28;20113;-75
2023/07/19 04:56:36;;;;;;;6.00;3.90;;;;;;;;;;5053382;28;20024;-74
2023/07/19 04:59:01;;;;;;;7.93;4.32;;;;;;;;;;5053655;28;20048;-75
2023/07/19 05:01:26;;;;;;;4.88;4.07;;;;;;;;;;5052193;28;20026;-74
2023/07/19 05:03:52;;;;;;;4.13;3.42;;;;;;;;;;5052987;28;20108;-75
2023/07/19 05:06:17;;;;;;;5.65;3.92;;;;;;;;;;5053572;28;20054;-75
2023/07/19 05:08:43;;;;;;;5.30;3.72;;;;;;;;;;5053607;28;20040;-75
2023/07/19 05:11:09;;;;;;;6.82;3.28;;;;;;;;;;5052179;28;20493;-75
2023/07/19 05:13:34;;;;;;;6.13;3.83;;;;;;;;;;5035018;28;20021;-75
2023/07/19 05:16:01;;;;;;;6.47;3.40;;;;;;;;;;5053401;28;20028;-75
2023/07/19 05:18:26;;;;;;;5.30;3.45;;;;;;;;;;5052193;28;20576;-75
2023/07/19 05:20:52;;;;;;;6.28;4.10;;;;;;;;;;5052695;28;20060;-75
2023/07/19 05:23:17;;;;;;;4.68;3.60;;;;;;;;;;5052115;28;20025;-74
2023/07/19 05:25:42;;;;;;;5.93;3.80;;;;;;;;;;5052064;28;20502;-75
2023/07/19 05:28:09;;;;;;;6.55;3.20;;;;;;;;;;5053450;28;20132;-74
2023/07/19 05:30:35;;;;;;;4.90;3.63;;;;;;;;;;5052817;28;20549;-74
2023/07/19 05:33:00;;;;;;;4.53;3.63;;;;;;;;;;5053110;28;20037;-75
2023/07/19 05:35:25;;;;;;;6.90;4.60;;;;;;;;;;5051990;28;20028;-75
2023/07/19 05:37:50;;;;;;;7.22;4.18;;;;;;;;;;5053115;28;20436;-75
2023/07/19 05:40:17;;;;;;;5.20;3.15;;;;;;;;;;5052437;28;20056;-74
2023/07/19 05:42:42;;;;;;;7.13;4.05;;;;;;;;;;5051899;28;20028;-75
2023/07/19 05:45:08;;;;;;;4.28;3.25;;;;;;;;;;5034637;28;20536;-74
2023/07/19 05:47:33;;;;;;;6.32;4.18;;;;;;;;;;5053183;28;20025;-75
2023/07/19 05:49:58;;;;;;;5.53;3.15;;;;;;;;;;5052864;28;20029;-75
2023/07/19 05:52:24;;;;;;;6.22;3.42;;;;;;;;;;5052407;28;20108;-75
2023/07/19 05:54:49;;;;;;;3.90;2.70;;;;;;;;;;5051599;28;20079;-74
2023/07/19 05:57:14;;;;;;;6.05;2.92;;;;;;;;;;5051294;28;20021;-74
2023/07/19 05:59:39;;;;;;;5.43;2.25;;;;;;;;;;5052281;28;20037;-74
2023/07/19 06:02:05;;;;;;;4.47;3.35;;;;;;;;;;5052839;28;20049;-74
2023/07/19 06:04:31;;;;;;;3.15;2.53;;;;;;;;;;5051668;28;20043;-74
2023/07/19 06:06:57;;;;;;;4.53;2.80;;;;;;;;;;5052721;28;20025;-74
2023/07/19 06:09:22;;;;;;;3.67;2.78;;;;;;;;;;5051062;28;20029;-74
2023/07/19 06:11:47;;;;;;;4.63;2.92;;;;;;;;;;5056817;28;20079;-75
2023/07/19 06:14:13;;;;;;;4.47;3.03;;;;;;;;;;5055636;28;20082;-75
2023/07/19 06:16:39;;;;;;;6.32;3.15;;;;;;;;;;5056757;28;20478;-74
2023/07/19 06:19:04;;;;;;;3.65;2.78;;;;;;;;;;5055618;28;20024;-74
2023/07/19 06:21:31;;;;;;;4.68;2.60;;;;;;;;;;5055206;28;20447;-73
2023/07/19 06:23:57;;;;;;;3.53;2.60;;;;;;;;;;5055228;28;20111;-74
2023/07/19 06:26:22;;;;;;;5.07;2.47;;;;;;;;;;5056516;28;20107;-74
2023/07/19 06:28:47;;;;;;;4.22;2.38;;;;;;;;;;5056492;28;20036;-74
2023/07/19 06:31:12;;;;;;;5.35;2.80;;;;;;;;;;5026002;28;20109;-74
2023/07/19 06:33:38;;;;;;;3.28;2.45;;;;;;;;;;5016263;28;20506;-74
2023/07/19 06:36:03;;;;;;;3.95;2.75;;;;;;;;;;5023973;28;20021;-74
2023/07/19 06:38:29;;;;;;;4.30;2.50;;;;;;;;;;5035187;28;20025;-75
2023/07/19 06:41:00;;;;;;;2.47;2.17;;;;;;;;;;5036156;28;20017;-75
2023/07/19 06:43:25;;;;;;;3.45;2.20;;;;;;;;;;5033437;28;20100;-75
2023/07/19 06:45:51;;;;;;;4.68;2.00;;;;;;;;;;5036503;28;20071;-75
2023/07/19 06:48:16;;;;;;;8.43;2.38;;;;;;;;;;5036179;28;20525;-74
2023/07/19 06:50:41;;;;;;;3.78;2.15;;;;;;;;;;5035644;28;20037;-74
2023/07/19 06:53:07;;;;;;;3.40;2.60;;;;;;;;;;5035365;28;20026;-75
2023/07/19 06:55:32;;;;;;;2.70;1.88;;;;;;;;;;5036090;28;20060;-77
2023/07/19 06:57:57;;;;;;;3.42;2.47;;;;;;;;;;5025025;28;20034;-75
2023/07/19 07:00:23;;;;;;;4.15;1.83;;;;;;;;;;5014472;28;20478;-75
2023/07/19 07:02:48;;;;;;;4.88;2.13;;;;;;;;;;5015162;28;20434;-74
2023/07/19 07:05:13;;;;;;;4.40;2.15;;;;;;;;;;5016151;28;20061;-75
2023/07/19 07:07:39;;;;;;;5.55;2.20;;;;;;;;;;5015876;28;20112;-74
2023/07/19 07:10:08;;;;;;;3.00;1.92;;;;;;;;;;5015870;28;20100;-75
2023/07/19 07:12:34;;;;;;;3.92;2.25;;;;;;;;;;5015510;28;20022;-75
2023/07/19 07:14:59;;;;;;;3.05;2.10;;;;;;;;;;5016169;28;20521;-74
2023/07/19 07:17:25;;;;;;;6.22;2.10;;;;;;;;;;5014933;28;20022;-75
2023/07/19 07:19:53;;;;;;;3.33;1.98;;;;;;;;;;5015796;28;20037;-74
2023/07/19 07:22:19;;;;;;;3.55;1.98;;;;;;;;;;5014718;28;20030;-75
2023/07/19 07:24:44;;;;;;;4.45;1.90;;;;;;;;;;5015575;28;20026;-73
2023/07/19 07:27:09;;;;;;;3.13;1.75;;;;;;;;;;5015709;28;20025;-74
2023/07/19 07:29:36;;;;;;;3.38;1.52;;;;;;;;;;5015645;28;20030;-72
2023/07/19 07:32:01;;;;;;;4.15;1.50;;;;;;;;;;5042412;28;20035;-74
2023/07/19 07:34:26;;;;;;;1.92;1.48;;;;;;;;;;5055426;28;20029;-75
2023/07/19 07:36:52;;;;;;;4.35;2.00;;;;;;;;;;5053478;28;20024;-75
2023/07/19 07:39:19;;;;;;;3.22;2.03;;;;;;;;;;5055264;28;20021;-75
2023/07/19 07:41:44;;;;;;;2.50;1.88;;;;;;;;;;5055054;28;20071;-75
2023/07/19 07:44:10;;;;;;;2.78;1.40;;;;;;;;;;5039445;28;20037;-74
2023/07/19 07:46:35;;;;;;;3.13;1.77;;;;;;;;;;5034462;28;20032;-74
2023/07/19 07:49:01;;;;;;;3.10;1.73;;;;;;;;;;5035176;28;20061;-75
2023/07/19 07:51:29;;;;;;;4.43;1.77;;;;;;;;;;5035039;28;20025;-75
2023/07/19 07:53:54;;;;;;;6.40;3.05;;;;;;;;;;5029300;28;20080;-74
2023/07/19 07:56:19;;;;;;;3.67;1.95;;;;;;;;;;5014707;28;20022;-74
2023/07/19 07:58:45;;;;;;;3.45;1.30;;;;;;;;;;5018112;28;20430;-74
2023/07/19 08:01:10;;;;;;;4.93;1.77;;;;;;;;;;5054769;28;20508;-74
2023/07/19 08:03:35;;;;;;;2.50;1.55;;;;;;;;;;5055382;28;20020;-75
2023/07/19 08:06:04;;;;;;;3.33;1.63;;;;;;;;;;5052896;28;20020;-74
2023/07/19 08:08:29;;;;;;;4.10;1.35;;;;;;;;;;5054718;28;20112;-74
2023/07/19 08:10:54;;;;;;;4.68;1.88;;;;;;;;;;5140880;22;20035;-73
2023/07/19 08:13:20;;;;;;;6.18;2.47;;;;;;;;;;5074096;28;20036;-73
2023/07/19 08:15:46;;;;;;;4.95;1.58;;;;;;;;;;5056761;28;20059;-73
2023/07/19 08:18:11;;;;;;;3.00;1.55;;;;;;;;;;5074478;28;20026;-73
2023/07/19 08:20:36;;;;;;;3.65;1.95;;;;;;;;;;5056322;28;20030;-73
2023/07/19 08:23:02;;;;;;;2.92;1.90;;;;;;;;;;5074421;28;20022;-73
2023/07/19 08:25:27;;;;;;;3.72;1.88;;;;;;;;;;5056375;28;20044;-73
2023/07/19 08:27:52;;;;;;;3.40;1.90;;;;;;;;;;5073750;28;20807;-73
2023/07/19 08:30:18;;;;;;;2.25;1.50;;;;;;;;;;5074207;28;20028;-73
2023/07/19 08:32:45;;;;;;;3.95;1.80;;;;;;;;;;5073777;28;20099;-74
2023/07/19 08:35:11;;;;;;;2.25;1.48;;;;;;;;;;5074086;28;20025;-74
2023/07/19 08:37:36;;;;;;;4.32;1.23;;;;;;;;;;5056288;28;20473;-74
2023/07/19 08:40:01;;;;;;;1.92;1.33;;;;;;;;;;5073496;28;20032;-73
2023/07/19 08:42:27;;;;;;;1.75;1.38;;;;;;;;;;5056047;28;20035;-73
2023/07/19 08:44:54;;;;;;;2.78;1.27;;;;;;;;;;5073688;28;20405;-73
2023/07/19 08:47:19;;;;;;;3.83;1.70;;;;;;;;;;5073650;28;20024;-74
2023/07/19 08:49:45;;;;;;;3.63;2.75;;;;;;;;;;5073858;28;20031;-73
2023/07/19 08:52:12;;;;;;;3.70;1.88;;;;;;;;;;5055150;28;20033;-72
2023/07/19 08:54:38;;;;;;;4.10;1.70;;;;;;;;;;5055131;28;20085;-73
2023/07/19 08:57:06;;;;;;;2.00;1.80;;;;;;;;;;5052918;28;20478;-72
2023/07/19 08:59:31;;;;;;;3.20;1.80;;;;;;;;;;5065349;28;20473;-73
2023/07/19 09:01:57;;;;;;;2.72;1.77;;;;;;;;;;5058903;28;20025;-72
2023/07/19 09:04:22;;;;;;;2.20;1.52;;;;;;;;;;5054244;28;20028;-72
2023/07/19 09:06:48;;;;;;;4.85;2.92;;;;;;;;;;5073443;28;20072;-72
2023/07/19 09:09:14;;;;;;;3.05;1.60;;;;;;;;;;5055492;28;20099;-73
2023/07/19 09:11:49;;;;;;;3.45;2.00;;;;;;;;;;5073190;28;20052;-73
2023/07/19 09:14:15;;;;;;;6.43;1.85;;;;;;;;;;5072604;28;20024;-73
2023/07/19 09:16:40;;;;;;;2.47;1.58;;;;;;;;;;5073265;28;20016;-73
2023/07/19 09:19:07;;;;;;;3.45;1.83;;;;;;;;;;5073386;28;20023;-73
2023/07/19 09:21:42;;;;;;;4.10;1.90;;;;;;;;;;5054890;28;20029;-73
2023/07/19 09:24:08;;;;;;;2.83;1.73;;;;;;;;;;5052058;28;20025;-73
2023/07/19 09:26:53;;;;;;;4.25;1.83;;;;;;;;;;5052517;28;20028;-73
2023/07/19 09:29:19;;;;;;;3.00;1.83;;;;;;;;;;5048873;28;20044;-73
2023/07/19 09:31:55;;;;;;;3.15;1.70;;;;;;;;;;5046908;28;20492;-73
2023/07/19 09:34:27;;;;;;;2.50;2.00;;;;;;;;;;5055074;28;20021;-73
2023/07/19 09:36:53;;;;;;;2.38;1.80;;;;;;;;;;5060980;28;20028;-74
2023/07/19 09:39:19;;;;;;;3.92;1.88;;;;;;;;;;5035284;28;20021;-75
2023/07/19 09:41:47;;;;;;;4.28;2.10;;;;;;;;;;5036069;28;20124;-73
2023/07/19 09:44:15;;;;;;;3.83;2.22;;;;;;;;;;5035435;28;20025;-73
2023/07/19 09:46:42;;;;;;;2.92;1.98;;;;;;;;;;5053070;28;20432;-72
2023/07/19 09:49:07;;;;;;;4.25;2.13;;;;;;;;;;5037018;28;20121;-72
2023/07/19 09:51:35;;;;;;;3.90;2.05;;;;;;;;;;5034132;28;20048;-72
2023/07/19 09:54:00;;;;;;;3.05;1.75;;;;;;;;;;5034419;28;20021;-72
2023/07/19 09:56:26;;;;;;;2.85;1.55;;;;;;;;;;5051558;28;20021;-72
2023/07/19 09:58:53;;;;;;;3.17;1.88;;;;;;;;;;5052671;28;20496;-72
2023/07/19 10:01:18;;;;;;;4.82;1.92;;;;;;;;;;5035078;28;20021;-72
2023/07/19 10:03:44;;;;;;;2.10;1.60;;;;;;;;;;5054617;28;20128;-72
2023/07/19 10:06:09;;;;;;;3.38;1.60;;;;;;;;;;5034102;28;20108;-72
2023/07/19 10:08:35;;;;;;;4.60;1.67;;;;;;;;;;5052602;28;20033;-72
2023/07/19 10:11:00;;;;;;;2.05;1.67;;;;;;;;;;5034780;28;20025;-72
2023/07/19 10:13:52;;;;;;;3.95;1.60;;;;;;;;;;5035734;28;20036;-72
2023/07/19 10:16:26;;;;;;;1.88;1.48;;;;;;;;;;5054947;28;20469;-72
2023/07/19 10:19:10;;;;;;;3.75;1.98;;;;;;;;;;5052561;28;20112;-72
2023/07/19 10:21:36;;;;;;;3.15;1.60;;;;;;;;;;5052808;28;20021;-72
2023/07/19 10:24:05;;;;;;;2.53;1.52;;;;;;;;;;5052122;28;20028;-72
2023/07/19 10:26:35;;;;;;;2.47;1.80;;;;;;;;;;5053687;28;20021;-71
2023/07/19 10:29:01;;;;;;;2.60;1.70;;;;;;;;;;5054502;28;20070;-73
2023/07/19 10:31:26;;;;;;;4.20;2.10;;;;;;;;;;5049632;28;20021;-72
2023/07/19 10:33:55;;;;;;;2.45;1.50;;;;;;;;;;5072573;28;20491;-72
2023/07/19 10:36:20;;;;;;;2.75;2.33;;;;;;;;;;5050549;28;20017;-72
2023/07/19 10:38:46;;;;;;;4.68;2.58;;;;;;;;;;5034807;28;20051;-72
2023/07/19 10:41:12;;;;;;;3.28;2.22;;;;;;;;;;5051622;28;20110;-72
2023/07/19 10:43:38;;;;;;;2.95;1.65;;;;;;;;;;5034925;28;20029;-72
2023/07/19 10:46:04;;;;;;;2.97;2.00;;;;;;;;;;5052127;28;20028;-72
2023/07/19 10:48:32;;;;;;;2.10;1.60;;;;;;;;;;5042375;28;20378;-72
2023/07/19 10:51:09;;;;;;;2.13;1.50;;;;;;;;;;5057098;28;20107;-72
2023/07/19 10:53:46;;;;;;;3.22;1.65;;;;;;;;;;5054994;28;20553;-72
2023/07/19 10:56:13;;;;;;;2.53;1.45;;;;;;;;;;5053396;28;20023;-72
2023/07/19 10:58:39;;;;;;;4.47;1.92;;;;;;;;;;5058172;28;20107;-72
2023/07/19 11:01:04;;;;;;;4.72;2.38;;;;;;;;;;5038359;28;20102;-72
2023/07/19 11:03:30;;;;;;;2.60;1.73;;;;;;;;;;5037618;28;20025;-72
2023/07/19 11:05:57;;;;;;;3.55;1.52;;;;;;;;;;5052290;28;20032;-72
2023/07/19 11:08:24;;;;;;;3.60;1.60;;;;;;;;;;5037866;28;20037;-72
2023/07/19 11:10:51;;;;;;;2.95;1.92;;;;;;;;;;5055561;28;20029;-72
2023/07/19 11:13:17;;;;;;;2.53;1.50;;;;;;;;;;5037973;28;20036;-72
2023/07/19 11:15:47;;;;;;;2.67;1.70;;;;;;;;;;5037339;28;20462;-72
2023/07/19 11:18:12;;;;;;;1.90;1.52;;;;;;;;;;5054405;28;20489;-71
2023/07/19 11:20:39;;;;;;;2.28;1.55;;;;;;;;;;5061766;28;20017;-72
2023/07/19 11:23:09;;;;;;;2.45;1.60;;;;;;;;;;5075606;28;20020;-72
2023/07/19 11:25:35;;;;;;;2.97;1.70;;;;;;;;;;5075221;28;20099;-71
2023/07/19 11:28:00;;;;;;;1.63;1.33;;;;;;;;;;5056787;28;20111;-71
2023/07/19 11:30:35;;;;;;;2.03;1.55;;;;;;;;;;5075565;28;20064;-71
2023/07/19 11:33:05;;;;;;;3.22;1.77;;;;;;;;;;5075415;28;20078;-71
2023/07/19 11:35:31;;;;;;;2.25;1.75;;;;;;;;;;5055860;28;20020;-71
2023/07/19 11:37:56;;;;;;;2.92;1.85;;;;;;;;;;5057528;28;20025;-71
2023/07/19 11:40:23;;;;;;;2.28;1.88;;;;;;;;;;5055133;28;20036;-71
2023/07/19 11:42:52;;;;;;;3.35;1.60;;;;;;;;;;5037262;28;20024;-71
2023/07/19 11:45:19;;;;;;;3.42;2.03;;;;;;;;;;5037231;28;20692;-71
2023/07/19 11:47:47;;;;;;;4.45;2.10;;;;;;;;;;5037036;28;20025;-71
2023/07/19 11:50:12;;;;;;;3.15;1.50;;;;;;;;;;5053330;28;20020;-70
2023/07/19 11:52:51;;;;;;;2.42;1.63;;;;;;;;;;5020933;28;20390;-70
2023/07/19 11:55:17;;;;;;;5.05;2.10;;;;;;;;;;5055223;28;20107;-71
2023/07/19 11:57:48;;;;;;;5.68;2.13;;;;;;;;;;5037491;28;20047;-70
2023/07/19 12:00:14;;;;;;;5.78;2.15;;;;;;;;;;5057544;28;20021;-70
2023/07/19 12:02:41;;;;;;;2.47;1.95;;;;;;;;;;5056180;28;20025;-71
2023/07/19 12:05:06;;;;;;;3.05;2.13;;;;;;;;;;5070275;28;20032;-71
2023/07/19 12:07:32;;;;;;;5.80;2.10;;;;;;;;;;5056052;28;20485;-71
2023/07/19 12:10:02;;;;;;;3.80;2.10;;;;;;;;;;5046426;28;20025;-71
2023/07/19 12:12:27;;;;;;;2.90;2.00;;;;;;;;;;5036470;28;20051;-71
2023/07/19 12:14:53;;;;;;;4.50;2.05;;;;;;;;;;5054902;28;20021;-71
2023/07/19 12:17:19;;;;;;;3.33;2.38;;;;;;;;;;5054533;28;20017;-71
2023/07/19 12:19:44;;;;;;;3.42;2.17;;;;;;;;;;5058903;28;20025;-71
2023/07/19 12:22:09;;;;;;;4.05;2.05;;;;;;;;;;5074574;28;20436;-71
2023/07/19 12:24:34;;;;;;;3.13;2.15;;;;;;;;;;5073457;28;20025;-71
2023/07/19 12:27:00;;;;;;;3.75;2.13;;;;;;;;;;5074667;28;20025;-71
2023/07/19 12:29:25;;;;;;;5.78;2.53;;;;;;;;;;5074041;28;20470;-71
2023/07/19 12:31:51;;;;;;;2.42;1.85;;;;;;;;;;5071695;28;20028;-71
2023/07/19 12:34:17;;;;;;;4.05;2.10;;;;;;;;;;5070244;28;20553;-71
2023/07/19 12:36:43;;;;;;;2.78;2.10;;;;;;;;;;5054199;28;20048;-71
2023/07/19 12:39:08;;;;;;;3.65;2.30;;;;;;;;;;5035649;28;20020;-71
2023/07/19 12:41:34;;;;;;;3.13;1.70;;;;;;;;;;5072651;28;20099;-72
2023/07/19 12:43:59;;;;;;;2.60;1.83;;;;;;;;;;5073585;28;20420;-72
2023/07/19 12:46:24;;;;;;;2.92;2.03;;;;;;;;;;5056155;28;20021;-72
2023/07/19 12:48:50;;;;;;;2.85;1.60;;;;;;;;;;5073728;28;20028;-72
2023/07/19 12:51:15;;;;;;;2.42;1.73;;;;;;;;;;5046503;28;20033;-72
2023/07/19 12:53:40;;;;;;;2.40;1.65;;;;;;;;;;5053838;28;20028;-72
2023/07/19 12:56:06;;;;;;;3.72;1.63;;;;;;;;;;5057310;28;20028;-72
2023/07/19 12:58:31;;;;;;;3.03;1.50;;;;;;;;;;5056021;28;20047;-72
2023/07/19 13:00:57;;;;;;;2.30;1.75;;;;;;;;;;5073133;28;20478;-72
2023/07/19 13:03:24;;;;;;;3.42;2.15;;;;;;;;;;5073028;28;20020;-72
2023/07/19 13:05:49;;;;;;;2.58;1.65;;;;;;;;;;5054378;28;20020;-72
2023/07/19 13:08:14;;;;;;;1.60;1.50;;;;;;;;;;5034258;28;20031;-72
2023/07/19 13:10:40;;;;;;;1.70;1.42;;;;;;;;;;5066805;28;20020;-72
2023/07/19 13:13:05;;;;;;;1.48;1.30;;;;;;;;;;5035362;28;20363;-72
2023/07/19 13:15:31;;;;;;;1.45;1.35;;;;;;;;;;5035094;28;20029;-72
2023/07/19 13:17:56;;;;;;;3.00;1.45;;;;;;;;;;5053416;28;20478;-72
2023/07/19 13:20:23;;;;;;;1.85;1.40;;;;;;;;;;5057783;28;20363;-72
2023/07/19 13:22:50;;;;;;;2.22;1.33;;;;;;;;;;5055712;28;20020;-72
2023/07/19 13:25:15;;;;;;;2.08;1.35;;;;;;;;;;5054654;28;20073;-72
2023/07/19 13:27:40;;;;;;;3.05;1.50;;;;;;;;;;5038313;28;20119;-72
2023/07/19 13:30:06;;;;;;;2.58;1.30;;;;;;;;;;5073377;28;20024;-72
2023/07/19 13:32:32;;;;;;;2.35;1.33;;;;;;;;;;5072469;28;20021;-72
2023/07/19 13:34:57;;;;;;;2.40;1.65;;;;;;;;;;5055293;28;20023;-72
2023/07/19 13:37:23;;;;;;;1.42;1.10;;;;;;;;;;5038340;28;20023;-72
2023/07/19 13:39:48;;;;;;;1.92;1.45;;;;;;;;;;5055294;28;20026;-73
2023/07/19 13:42:13;;;;;;;1.67;1.40;;;;;;;;;;5054791;28;20032;-72
2023/07/19 13:44:38;;;;;;;1.95;1.30;;;;;;;;;;5073192;28;20033;-72
2023/07/19 13:47:04;;;;;;;1.52;1.25;;;;;;;;;;5071795;28;20117;-72
2023/07/19 13:49:29;;;;;;;3.55;1.60;;;;;;;;;;5072938;28;20477;-73
2023/07/19 13:51:55;;;;;;;1.67;1.42;;;;;;;;;;5055059;28;20021;-73
2023/07/19 13:54:20;;;;;;;2.47;1.33;;;;;;;;;;5072967;28;20429;-73
2023/07/19 13:56:45;;;;;;;1.40;1.20;;;;;;;;;;5072388;28;20385;-73
2023/07/19 13:59:11;;;;;;;1.58;1.42;;;;;;;;;;5072989;28;20031;-73
2023/07/19 14:01:36;;;;;;;2.20;1.30;;;;;;;;;;5072614;28;20097;-74
2023/07/19 14:04:02;;;;;;;2.67;1.58;;;;;;;;;;5072760;28;20025;-73
2023/07/19 14:06:27;;;;;;;2.58;1.58;;;;;;;;;;5054913;28;20304;-73
2023/07/19 14:08:52;;;;;;;5.13;1.95;;;;;;;;;;5071929;28;20103;-73
2023/07/19 14:11:18;;;;;;;1.65;1.50;;;;;;;;;;5072786;28;20028;-73
2023/07/19 14:13:48;;;;;;;2.92;1.33;;;;;;;;;;5072821;28;20108;-72
2023/07/19 14:16:15;;;;;;;2.05;1.52;;;;;;;;;;5055549;28;20381;-72
2023/07/19 14:18:40;;;;;;;3.50;1.90;;;;;;;;;;5054552;28;20477;-72
2023/07/19 14:21:05;;;;;;;2.05;1.52;;;;;;;;;;5072335;28;20031;-72
2023/07/19 14:23:31;;;;;;;2.05;1.85;;;;;;;;;;5055448;28;20017;-72
2023/07/19 14:25:56;;;;;;;1.70;1.25;;;;;;;;;;5072202;28;20021;-72
2023/07/19 14:28:21;;;;;;;2.95;1.60;;;;;;;;;;5054269;28;20393;-73
2023/07/19 14:30:47;;;;;;;2.28;1.60;;;;;;;;;;5073116;28;20378;-72
2023/07/19 14:33:12;;;;;;;3.35;1.52;;;;;;;;;;5076443;28;20074;-72
2023/07/19 14:35:38;;;;;;;2.63;1.52;;;;;;;;;;5057910;28;20086;-72